首页
METAR-TAF:

METAR-TAF

机场 :

圣纳泽尔, 法国

纬度: 47-19N, 经度: 002-10W, 海拔: 3米

当前天气观测

该预报发布于21分钟前的22:00 UTC
风速18节,风向西南
温度 16°C
湿度 88%
气压 1010 hPa
能见度10公里或以上

METAR: LFRZ 152200Z AUTO 22018KT 9999 FEW024/// SCT045/// BKN076/// ///TCU 16/14 Q1010 BECMG BKN030

时间: 00:21 (22:21 UTC)

预报

该预报发布于2小时和45分钟前的19:36 UTC
预报有效从15日的 19点(UTC)到 16日的 18点(UTC)
风速12节,风向西南
能见度10公里或以上
多云层高于3000英尺
小雨
短暂存在
从 15日的 19点(UTC)到 15日的 22点(UTC)
能見度: 4000
多云层高于3000英尺, 积雨云.
阵雨
短暂存在
从 16日的 00点(UTC)到 16日的 18点(UTC)
风速20节,风向西南,有时为35节阵风
能見度: 2000
多云层高于800英尺

TAF: LFRZ 151936Z 1519/1618 22012KT 9999 -RA BKN030 TEMPO 1519/1522 4000 SHRA BKN030CB TEMPO 1600/1618 22020G35KT 2000 RA BKN008

超过4000个机场的气象观测和天气预报(METAR&TAF报告)。

可查询的气象台以黄色和红色小点在地图上表示。

将鼠标移到小点上方,可查看气象台名称。

然后点击查看天气观测和预报。

如需切换地图:点击带黑十字的绿色按钮放大地图;点击带横线的绿色按钮缩小地图;或者点击绿色箭头查看邻近地区的地图。


METAR-TAF: